Jericho, New York
Current Conditions -  °F | °C
As of 7:53 AM on Thursday 18 Dec 2014 (Local Time) from KFRG Reporting Station
Clear Clear  
Wind Chill: 29°   Ceiling: Unl
Heat Index: 38°   Visibility: 10mi
Dew Point: 23°   Wind: 15mph
Humidity: 55%   Direction: 300°WNW
Pressure: 29.95"   Gusts: 21mph
Location:  40.79°N, 73.54°W
Report Text: KFRG 181253Z 30013G18KT 10SM CLR 03/M05 A2995 RMK AO2 SLP141 T00331050
Loading
Personal Weather Stations






























Interactive Weather Map New forecast layout! Learn more

10-Day Weather Forecast

Advertisements
Track Severe Weather on mobile